Time;durP1;ratioP1;P1;durP2;ratioP2;P2;SDS_P1;SDS_P2;PMS_P1;PMS_P2;Temp;Humidity;BMP_temperature;BMP_pressure;BME280_temperature;BME280_humidity;BME280_pressure;Samples;Min_cycle;Max_cycle;Signal;HPM_P1;HPM_P2
2023/12/29 00:00:28;;;;;;;3.95;3.63;;;;;;;;;;1032391;28;20566;-74
2023/12/29 00:00:59;;;;;;;4.03;2.17;;;;;;;;;;1032728;28;20054;-74
2023/12/29 00:01:30;;;;;;;4.60;4.13;;;;;;;;;;1031891;28;20045;-75
2023/12/29 00:02:00;;;;;;;4.68;2.83;;;;;;;;;;1033678;28;20107;-75
2023/12/29 00:02:31;;;;;;;7.85;4.38;;;;;;;;;;1033460;28;20449;-74
2023/12/29 00:03:01;;;;;;;2.75;2.55;;;;;;;;;;1033162;28;20018;-75
2023/12/29 00:03:32;;;;;;;4.75;3.83;;;;;;;;;;1033414;28;20030;-75
2023/12/29 00:04:02;;;;;;;5.35;3.25;;;;;;;;;;1033786;28;20057;-75
2023/12/29 00:04:33;;;;;;;7.15;4.40;;;;;;;;;;1033708;28;20062;-74
2023/12/29 00:05:03;;;;;;;10.18;3.80;;;;;;;;;;1032266;28;20454;-75
2023/12/29 00:05:34;;;;;;;5.50;4.80;;;;;;;;;;1033264;28;20038;-74
2023/12/29 00:06:04;;;;;;;20.70;4.30;;;;;;;;;;1029214;28;20153;-75
2023/12/29 00:06:38;;;;;;;4.30;4.00;;;;;;;;;;1029345;28;20044;-74
2023/12/29 00:07:09;;;;;;;3.38;2.75;;;;;;;;;;1029696;28;20466;-75
2023/12/29 00:07:39;;;;;;;3.92;3.45;;;;;;;;;;1033532;28;20026;-74
2023/12/29 00:08:10;;;;;;;11.88;4.15;;;;;;;;;;1033739;28;20030;-74
2023/12/29 00:08:40;;;;;;;3.80;3.45;;;;;;;;;;1032454;28;20042;-74
2023/12/29 00:09:12;;;;;;;7.85;3.40;;;;;;;;;;1033521;28;20030;-75
2023/12/29 00:09:42;;;;;;;8.98;5.60;;;;;;;;;;1032771;28;20025;-75
2023/12/29 00:10:13;;;;;;;5.53;5.03;;;;;;;;;;1032414;28;20061;-75
2023/12/29 00:10:44;;;;;;;7.70;3.47;;;;;;;;;;1032864;28;20033;-75
2023/12/29 00:11:20;;;;;;;7.38;4.78;;;;;;;;;;1033007;28;20031;-75
2023/12/29 00:11:51;;;;;;;11.27;2.40;;;;;;;;;;1033642;28;20037;-75
2023/12/29 00:12:21;;;;;;;2.90;2.67;;;;;;;;;;1034563;28;20057;-75
2023/12/29 00:12:52;;;;;;;6.85;4.13;;;;;;;;;;1033367;28;20018;-75
2023/12/29 00:13:23;;;;;;;2.55;2.17;;;;;;;;;;1033111;28;20072;-74
2023/12/29 00:13:54;;;;;;;5.35;1.75;;;;;;;;;;1033278;28;20026;-74
2023/12/29 00:14:26;;;;;;;5.15;3.08;;;;;;;;;;1033005;28;20026;-74
2023/12/29 00:14:56;;;;;;;2.90;2.70;;;;;;;;;;1033541;28;20536;-74
2023/12/29 00:15:27;;;;;;;6.85;3.92;;;;;;;;;;1033683;28;20030;-73
2023/12/29 00:15:57;;;;;;;4.63;3.17;;;;;;;;;;1032947;28;20076;-74
2023/12/29 00:16:27;;;;;;;1.67;1.58;;;;;;;;;;1033398;28;20036;-74
2023/12/29 00:16:58;;;;;;;6.00;4.15;;;;;;;;;;1033332;28;20061;-74
2023/12/29 00:17:28;;;;;;;4.30;2.63;;;;;;;;;;1033133;28;20148;-75
2023/12/29 00:17:59;;;;;;;2.28;2.10;;;;;;;;;;1033572;28;20117;-74
2023/12/29 00:18:29;;;;;;;9.45;3.38;;;;;;;;;;1033599;28;20018;-74
2023/12/29 00:19:00;;;;;;;10.20;4.10;;;;;;;;;;1033311;28;20113;-74
2023/12/29 00:19:30;;;;;;;6.72;4.05;;;;;;;;;;1033151;28;20146;-74
2023/12/29 00:20:01;;;;;;;5.07;4.43;;;;;;;;;;1032391;28;20502;-75
2023/12/29 00:20:31;;;;;;;4.07;3.58;;;;;;;;;;1032168;28;20018;-75
2023/12/29 00:21:02;;;;;;;1.90;1.75;;;;;;;;;;1032723;28;20080;-74
2023/12/29 00:21:32;;;;;;;5.68;2.95;;;;;;;;;;1033974;28;20113;-74
2023/12/29 00:22:03;;;;;;;7.60;4.90;;;;;;;;;;1029202;28;20537;-74
2023/12/29 00:22:34;;;;;;;3.22;2.88;;;;;;;;;;1029596;28;20027;-74
2023/12/29 00:23:04;;;;;;;3.25;2.15;;;;;;;;;;1033088;28;20462;-74
2023/12/29 00:23:35;;;;;;;9.50;4.22;;;;;;;;;;1032682;28;20017;-74
2023/12/29 00:24:05;;;;;;;6.72;2.83;;;;;;;;;;1033503;28;20104;-74
2023/12/29 00:24:36;;;;;;;3.28;3.00;;;;;;;;;;1033239;28;20033;-73
2023/12/29 00:25:08;;;;;;;8.50;4.28;;;;;;;;;;1033102;28;20054;-73
2023/12/29 00:25:39;;;;;;;3.35;2.83;;;;;;;;;;1032025;28;20022;-73
2023/12/29 00:26:09;;;;;;;20.48;3.60;;;;;;;;;;1033168;28;20077;-74
2023/12/29 00:26:39;;;;;;;4.47;4.03;;;;;;;;;;1033714;28;20434;-74
2023/12/29 00:27:10;;;;;;;3.38;3.00;;;;;;;;;;1034771;28;20022;-74
2023/12/29 00:27:41;;;;;;;4.82;3.03;;;;;;;;;;1033183;28;20030;-73
2023/12/29 00:28:11;;;;;;;5.72;4.88;;;;;;;;;;1033279;28;20033;-74
2023/12/29 00:28:42;;;;;;;4.88;4.45;;;;;;;;;;1031257;28;20027;-74
2023/12/29 00:29:16;;;;;;;13.20;5.50;;;;;;;;;;1031355;28;20061;-74
2023/12/29 00:29:46;;;;;;;4.05;3.65;;;;;;;;;;1031254;28;20037;-74
2023/12/29 00:30:18;;;;;;;6.65;3.60;;;;;;;;;;1031284;28;20462;-75
2023/12/29 00:30:48;;;;;;;5.82;2.20;;;;;;;;;;1031002;28;20022;-73
2023/12/29 00:31:19;;;;;;;1.48;1.38;;;;;;;;;;1030883;28;20098;-75
2023/12/29 00:31:49;;;;;;;1.15;1.13;;;;;;;;;;1035280;28;20044;-74
2023/12/29 00:32:20;;;;;;;5.30;3.75;;;;;;;;;;1031191;28;20022;-74
2023/12/29 00:32:51;;;;;;;9.15;2.33;;;;;;;;;;1028818;28;20550;-75
2023/12/29 00:33:21;;;;;;;2.85;1.33;;;;;;;;;;1029120;28;20034;-74
2023/12/29 00:33:52;;;;;;;3.45;1.77;;;;;;;;;;1029433;28;20037;-75
2023/12/29 00:34:23;;;;;;;5.57;2.20;;;;;;;;;;1029646;28;20435;-75
2023/12/29 00:34:54;;;;;;;5.07;3.33;;;;;;;;;;1033351;28;20026;-75
2023/12/29 00:35:24;;;;;;;3.67;2.30;;;;;;;;;;1032347;28;20029;-74
2023/12/29 00:35:55;;;;;;;4.57;1.85;;;;;;;;;;1031662;28;20121;-74
2023/12/29 00:36:25;;;;;;;2.55;1.95;;;;;;;;;;1033184;28;20022;-73
2023/12/29 00:36:56;;;;;;;16.30;3.15;;;;;;;;;;1033250;28;20026;-73
2023/12/29 00:37:26;;;;;;;13.93;3.80;;;;;;;;;;1032997;28;20026;-73
2023/12/29 00:37:56;;;;;;;3.58;2.72;;;;;;;;;;1033353;28;20505;-73
2023/12/29 00:38:29;;;;;;;4.72;4.32;;;;;;;;;;1033314;28;20057;-73
2023/12/29 00:39:00;;;;;;;1.48;1.42;;;;;;;;;;1034332;28;20026;-74
2023/12/29 00:39:31;;;;;;;7.57;3.88;;;;;;;;;;1033169;28;20014;-75
2023/12/29 00:40:01;;;;;;;2.75;2.28;;;;;;;;;;1032067;28;20116;-74
2023/12/29 00:40:32;;;;;;;4.60;4.03;;;;;;;;;;1032099;28;20033;-74
2023/12/29 00:41:04;;;;;;;1.48;1.38;;;;;;;;;;1033188;28;20417;-74
2023/12/29 00:41:35;;;;;;;5.25;4.75;;;;;;;;;;1037228;28;20516;-74
2023/12/29 00:42:08;;;;;;;0.50;0.50;;;;;;;;;;1032314;28;20037;-73
2023/12/29 00:42:39;;;;;;;5.32;3.72;;;;;;;;;;1033183;28;20076;-73
2023/12/29 00:43:10;;;;;;;6.53;2.67;;;;;;;;;;1034148;28;20100;-75
2023/12/29 00:43:41;;;;;;;5.65;3.83;;;;;;;;;;1033064;28;20040;-74
2023/12/29 00:44:11;;;;;;;3.47;1.88;;;;;;;;;;1033360;28;20029;-74
2023/12/29 00:44:41;;;;;;;17.25;4.03;;;;;;;;;;1034076;28;20454;-73
2023/12/29 00:45:12;;;;;;;3.58;3.30;;;;;;;;;;1033151;28;20182;-74
2023/12/29 00:45:43;;;;;;;3.08;2.85;;;;;;;;;;1032751;28;20045;-73
2023/12/29 00:46:14;;;;;;;26.13;6.47;;;;;;;;;;1033580;28;20033;-73
2023/12/29 00:46:44;;;;;;;3.45;2.35;;;;;;;;;;1033700;28;20057;-73
2023/12/29 00:47:15;;;;;;;3.65;3.35;;;;;;;;;;1032992;28;20033;-73
2023/12/29 00:47:45;;;;;;;7.72;3.20;;;;;;;;;;1032512;28;20028;-74
2023/12/29 00:48:16;;;;;;;7.03;3.55;;;;;;;;;;1033183;28;20108;-73
2023/12/29 00:48:46;;;;;;;6.20;2.05;;;;;;;;;;1033290;28;20034;-74
2023/12/29 00:49:17;;;;;;;3.90;3.35;;;;;;;;;;1032754;28;20014;-75
2023/12/29 00:49:48;;;;;;;3.28;2.95;;;;;;;;;;1032746;28;20026;-74
2023/12/29 00:50:18;;;;;;;2.03;1.42;;;;;;;;;;1033115;28;20029;-75
2023/12/29 00:50:49;;;;;;;2.35;2.15;;;;;;;;;;1033160;28;20038;-74
2023/12/29 00:51:19;;;;;;;2.00;1.85;;;;;;;;;;1032940;28;20018;-74
2023/12/29 00:51:50;;;;;;;9.07;2.28;;;;;;;;;;1033932;28;20061;-74
2023/12/29 00:52:20;;;;;;;2.38;2.03;;;;;;;;;;1033815;28;20033;-74
2023/12/29 00:52:51;;;;;;;1.90;1.75;;;;;;;;;;1032557;28;20521;-74
2023/12/29 00:53:21;;;;;;;5.75;2.75;;;;;;;;;;1033231;28;20494;-75
2023/12/29 00:53:51;;;;;;;1.40;1.33;;;;;;;;;;1033132;28;20454;-75
2023/12/29 00:54:22;;;;;;;2.67;2.53;;;;;;;;;;1033341;28;20018;-74
2023/12/29 00:54:52;;;;;;;4.53;3.17;;;;;;;;;;1032681;28;20113;-75
2023/12/29 00:55:23;;;;;;;3.10;2.47;;;;;;;;;;1033066;28;20117;-75
2023/12/29 00:55:53;;;;;;;2.20;1.65;;;;;;;;;;1032207;28;20053;-75
2023/12/29 00:56:24;;;;;;;2.40;2.20;;;;;;;;;;1032853;28;20030;-74
2023/12/29 00:56:54;;;;;;;1.95;1.85;;;;;;;;;;1032437;28;20026;-74
2023/12/29 00:57:25;;;;;;;3.17;2.97;;;;;;;;;;1032438;28;20025;-74
2023/12/29 00:57:55;;;;;;;5.35;3.03;;;;;;;;;;1033143;28;20029;-74
2023/12/29 00:58:25;;;;;;;2.63;2.42;;;;;;;;;;1033078;28;20046;-75
2023/12/29 00:58:56;;;;;;;2.25;2.05;;;;;;;;;;1033675;28;20028;-74
2023/12/29 00:59:26;;;;;;;0.50;0.50;;;;;;;;;;1033185;28;20054;-75
2023/12/29 00:59:57;;;;;;;2.47;1.30;;;;;;;;;;1033270;28;20022;-75
2023/12/29 01:00:27;;;;;;;3.70;3.25;;;;;;;;;;1032638;28;20120;-73
2023/12/29 01:00:58;;;;;;;6.22;3.20;;;;;;;;;;1031803;28;20047;-72
2023/12/29 01:01:28;;;;;;;1.48;1.38;;;;;;;;;;1033738;28;20455;-72
2023/12/29 01:01:59;;;;;;;1.58;1.45;;;;;;;;;;1034384;28;20475;-76
2023/12/29 01:02:29;;;;;;;2.58;2.38;;;;;;;;;;1033387;28;20026;-74
2023/12/29 01:02:59;;;;;;;16.90;5.60;;;;;;;;;;1033453;28;20026;-72
2023/12/29 01:03:30;;;;;;;5.03;3.28;;;;;;;;;;1033504;28;20018;-72
2023/12/29 01:04:00;;;;;;;0.52;0.52;;;;;;;;;;1033505;28;20022;-74
2023/12/29 01:04:31;;;;;;;0.60;0.60;;;;;;;;;;1033472;28;20389;-72
2023/12/29 01:05:01;;;;;;;2.33;2.03;;;;;;;;;;1033564;28;20018;-74
2023/12/29 01:05:32;;;;;;;4.43;1.73;;;;;;;;;;1034065;28;20018;-74
2023/12/29 01:06:02;;;;;;;0.50;0.50;;;;;;;;;;1033094;28;20026;-74
2023/12/29 01:06:33;;;;;;;3.53;3.20;;;;;;;;;;1034193;28;20025;-75
2023/12/29 01:07:03;;;;;;;5.53;1.88;;;;;;;;;;1034355;28;20079;-74
2023/12/29 01:07:34;;;;;;;2.45;2.17;;;;;;;;;;1033921;28;20026;-76
2023/12/29 01:08:05;;;;;;;0.52;0.52;;;;;;;;;;1034082;28;20033;-74
2023/12/29 01:08:35;;;;;;;6.72;3.28;;;;;;;;;;1033316;28;20440;-75
2023/12/29 01:09:07;;;;;;;3.33;2.40;;;;;;;;;;1032030;28;21121;-75
2023/12/29 01:09:40;;;;;;;3.13;2.35;;;;;;;;;;1034231;28;20466;-74
2023/12/29 01:10:10;;;;;;;2.45;2.25;;;;;;;;;;1033639;28;20109;-71
2023/12/29 01:10:41;;;;;;;3.80;2.17;;;;;;;;;;1032322;28;20101;-76
2023/12/29 01:11:11;;;;;;;3.53;2.47;;;;;;;;;;1033832;28;20375;-77
2023/12/29 01:11:42;;;;;;;5.78;4.68;;;;;;;;;;1033026;28;20022;-75
2023/12/29 01:12:12;;;;;;;2.92;1.77;;;;;;;;;;1034185;28;20610;-75
2023/12/29 01:12:42;;;;;;;10.05;2.78;;;;;;;;;;1033904;28;20041;-74
2023/12/29 01:13:13;;;;;;;1.85;1.75;;;;;;;;;;1033855;28;20030;-75
2023/12/29 01:13:43;;;;;;;5.55;3.13;;;;;;;;;;1034384;28;20026;-73
2023/12/29 01:14:14;;;;;;;3.83;2.45;;;;;;;;;;1034386;28;20041;-75
2023/12/29 01:14:44;;;;;;;2.45;2.28;;;;;;;;;;1033896;28;20033;-74
2023/12/29 01:15:15;;;;;;;4.82;3.05;;;;;;;;;;1035104;28;20549;-74
2023/12/29 01:15:45;;;;;;;3.08;2.80;;;;;;;;;;1033279;28;20018;-75
2023/12/29 01:16:16;;;;;;;3.80;1.88;;;;;;;;;;1033743;28;20475;-74
2023/12/29 01:16:46;;;;;;;3.85;3.50;;;;;;;;;;1029644;28;20030;-74
2023/12/29 01:17:17;;;;;;;2.97;2.55;;;;;;;;;;1028753;28;20023;-74
2023/12/29 01:17:47;;;;;;;12.25;2.67;;;;;;;;;;1029649;28;20027;-74
2023/12/29 01:18:18;;;;;;;13.90;2.63;;;;;;;;;;1033901;28;20030;-76
2023/12/29 01:18:48;;;;;;;1.88;1.77;;;;;;;;;;1034074;28;20096;-75
2023/12/29 01:19:19;;;;;;;5.82;2.53;;;;;;;;;;1033783;28;20562;-74
2023/12/29 01:19:49;;;;;;;25.13;5.25;;;;;;;;;;1033884;28;20125;-74
2023/12/29 01:20:22;;;;;;;4.35;3.40;;;;;;;;;;1033657;28;20109;-74
2023/12/29 01:20:53;;;;;;;6.50;4.05;;;;;;;;;;1034366;28;20040;-74
2023/12/29 01:21:23;;;;;;;4.43;3.60;;;;;;;;;;1029735;28;20085;-74
2023/12/29 01:21:54;;;;;;;1.83;1.65;;;;;;;;;;1030475;28;20019;-75
2023/12/29 01:22:24;;;;;;;6.93;3.42;;;;;;;;;;1034161;28;20026;-74
2023/12/29 01:22:54;;;;;;;2.30;2.10;;;;;;;;;;1032051;28;20502;-74
2023/12/29 01:23:25;;;;;;;6.80;2.90;;;;;;;;;;1034023;28;20030;-74
2023/12/29 01:23:55;;;;;;;1.00;0.95;;;;;;;;;;1029563;28;20037;-74
2023/12/29 01:24:26;;;;;;;13.88;3.28;;;;;;;;;;1029591;28;20029;-75
2023/12/29 01:24:59;;;;;;;7.63;4.95;;;;;;;;;;1025553;28;20022;-74
2023/12/29 01:25:29;;;;;;;4.18;1.85;;;;;;;;;;1027224;28;20407;-74
2023/12/29 01:25:59;;;;;;;3.22;2.92;;;;;;;;;;1032293;28;20030;-75
2023/12/29 01:26:30;;;;;;;2.28;2.10;;;;;;;;;;1032582;28;20022;-75
2023/12/29 01:27:03;;;;;;;8.00;6.47;;;;;;;;;;1033897;28;20026;-75
2023/12/29 01:27:34;;;;;;;0.82;0.82;;;;;;;;;;1033929;28;20036;-75
2023/12/29 01:28:05;;;;;;;11.23;4.80;;;;;;;;;;1032876;28;20028;-75
2023/12/29 01:28:35;;;;;;;6.15;3.47;;;;;;;;;;1033370;28;20053;-75
2023/12/29 01:29:08;;;;;;;8.00;2.83;;;;;;;;;;1032752;28;20026;-75
2023/12/29 01:29:39;;;;;;;7.35;3.03;;;;;;;;;;1033194;28;20030;-73
2023/12/29 01:30:09;;;;;;;3.15;2.65;;;;;;;;;;1033072;28;20482;-75
2023/12/29 01:30:40;;;;;;;9.13;5.55;;;;;;;;;;1033877;28;20033;-75
2023/12/29 01:31:12;;;;;;;13.40;6.72;;;;;;;;;;1031463;28;20441;-74
2023/12/29 01:31:43;;;;;;;3.58;1.58;;;;;;;;;;1033388;28;20026;-75
2023/12/29 01:32:14;;;;;;;1.80;1.55;;;;;;;;;;1033036;28;20120;-75
2023/12/29 01:32:44;;;;;;;4.18;2.80;;;;;;;;;;1032153;28;20030;-74
2023/12/29 01:33:15;;;;;;;6.82;2.95;;;;;;;;;;1032661;28;20064;-75
2023/12/29 01:33:45;;;;;;;4.78;2.35;;;;;;;;;;1037114;28;20072;-75
2023/12/29 01:34:16;;;;;;;1.45;1.35;;;;;;;;;;1033162;28;20029;-75
2023/12/29 01:34:46;;;;;;;1.20;1.10;;;;;;;;;;1033522;28;20117;-76
2023/12/29 01:35:17;;;;;;;2.22;1.83;;;;;;;;;;1031644;28;20117;-75
2023/12/29 01:35:47;;;;;;;6.75;4.75;;;;;;;;;;1032596;28;20419;-75
2023/12/29 01:36:21;;;;;;;4.57;2.67;;;;;;;;;;1033205;28;21620;-75
2023/12/29 01:36:51;;;;;;;1.25;1.20;;;;;;;;;;1031922;28;20033;-75
2023/12/29 01:37:22;;;;;;;4.38;2.85;;;;;;;;;;1033404;28;20032;-75
2023/12/29 01:37:52;;;;;;;3.13;2.42;;;;;;;;;;1033173;28;20100;-75
2023/12/29 01:38:23;;;;;;;4.50;4.03;;;;;;;;;;1033606;28;20081;-75
2023/12/29 01:38:53;;;;;;;1.85;0.90;;;;;;;;;;1033073;28;20143;-75
2023/12/29 01:39:24;;;;;;;8.88;5.43;;;;;;;;;;1031823;28;20018;-75
2023/12/29 01:39:54;;;;;;;9.13;1.27;;;;;;;;;;1033336;28;20088;-75
2023/12/29 01:40:25;;;;;;;8.18;5.60;;;;;;;;;;1032078;28;20032;-75
2023/12/29 01:40:55;;;;;;;3.05;1.52;;;;;;;;;;1032717;28;20030;-75
2023/12/29 01:41:26;;;;;;;3.50;2.55;;;;;;;;;;1031963;28;20030;-75
2023/12/29 01:41:56;;;;;;;9.20;5.85;;;;;;;;;;1033170;28;20021;-75
2023/12/29 01:42:27;;;;;;;2.00;1.67;;;;;;;;;;1032644;28;20044;-75
2023/12/29 01:42:57;;;;;;;2.90;2.42;;;;;;;;;;1029243;28;20089;-75
2023/12/29 01:43:28;;;;;;;4.60;3.40;;;;;;;;;;1027864;28;20023;-75
2023/12/29 01:44:01;;;;;;;5.28;3.00;;;;;;;;;;1029184;28;21247;-75
2023/12/29 01:44:32;;;;;;;6.88;5.80;;;;;;;;;;1032639;28;20586;-75
2023/12/29 01:45:02;;;;;;;4.32;1.15;;;;;;;;;;1032570;28;20018;-75
2023/12/29 01:45:33;;;;;;;4.80;3.60;;;;;;;;;;1033574;28;20755;-75
2023/12/29 01:46:03;;;;;;;3.15;2.95;;;;;;;;;;1032808;28;20088;-75
2023/12/29 01:46:34;;;;;;;8.02;2.35;;;;;;;;;;1034322;28;20026;-75
2023/12/29 01:47:10;;;;;;;4.45;4.15;;;;;;;;;;1032642;28;20033;-75
2023/12/29 01:47:40;;;;;;;3.35;3.05;;;;;;;;;;1038390;28;20610;-75
2023/12/29 01:48:11;;;;;;;3.28;3.08;;;;;;;;;;1032115;28;20080;-75
2023/12/29 01:48:41;;;;;;;4.40;3.78;;;;;;;;;;1032687;28;20793;-75
2023/12/29 01:49:18;;;;;;;3.80;2.95;;;;;;;;;;1028291;28;20490;-75
2023/12/29 01:49:49;;;;;;;3.42;2.72;;;;;;;;;;1030275;28;20488;-75
2023/12/29 01:50:20;;;;;;;1.08;1.08;;;;;;;;;;1029069;28;20082;-75
2023/12/29 01:50:51;;;;;;;0.57;0.57;;;;;;;;;;1029328;28;20601;-75
2023/12/29 01:51:23;;;;;;;2.80;2.15;;;;;;;;;;1033060;28;20100;-75
2023/12/29 01:51:55;;;;;;;4.07;2.80;;;;;;;;;;1033325;28;20466;-74
2023/12/29 01:52:26;;;;;;;8.35;4.43;;;;;;;;;;1031541;28;20138;-74
2023/12/29 01:52:57;;;;;;;3.75;2.90;;;;;;;;;;1030307;28;20027;-75
2023/12/29 01:53:27;;;;;;;1.90;1.80;;;;;;;;;;1029752;28;20125;-73
2023/12/29 01:53:58;;;;;;;0.52;0.52;;;;;;;;;;1029695;28;20120;-75
2023/12/29 01:54:30;;;;;;;5.03;4.47;;;;;;;;;;1031988;28;20372;-75
2023/12/29 01:55:00;;;;;;;8.32;2.35;;;;;;;;;;1033691;28;20018;-75
2023/12/29 01:55:31;;;;;;;10.05;4.15;;;;;;;;;;1033223;28;20105;-75
2023/12/29 01:56:02;;;;;;;3.92;3.53;;;;;;;;;;1031748;28;20034;-74
2023/12/29 01:56:32;;;;;;;1.20;1.20;;;;;;;;;;1032491;28;20022;-75
2023/12/29 01:57:03;;;;;;;5.45;2.40;;;;;;;;;;1033193;28;20034;-74
2023/12/29 01:57:35;;;;;;;6.60;2.25;;;;;;;;;;1033924;28;20053;-75
2023/12/29 01:58:05;;;;;;;2.83;2.63;;;;;;;;;;1032324;28;20076;-75
2023/12/29 01:58:36;;;;;;;2.60;2.13;;;;;;;;;;1033156;28;20030;-74
2023/12/29 01:59:07;;;;;;;3.45;1.23;;;;;;;;;;1032259;28;20041;-75
2023/12/29 01:59:38;;;;;;;0.88;0.88;;;;;;;;;;1034915;28;20029;-74
2023/12/29 02:00:09;;;;;;;1.15;1.15;;;;;;;;;;1033058;28;20092;-73
2023/12/29 02:00:40;;;;;;;13.45;3.60;;;;;;;;;;1031990;28;20076;-75
2023/12/29 02:01:11;;;;;;;5.50;2.28;;;;;;;;;;1032556;28;20442;-73
2023/12/29 02:01:42;;;;;;;0.55;0.55;;;;;;;;;;1032641;28;20021;-77
2023/12/29 02:02:13;;;;;;;1.80;1.70;;;;;;;;;;1033485;28;20636;-75
2023/12/29 02:02:44;;;;;;;3.85;2.35;;;;;;;;;;1032343;28;20041;-75
2023/12/29 02:03:14;;;;;;;34.58;4.07;;;;;;;;;;1033244;28;20037;-77
2023/12/29 02:03:45;;;;;;;11.57;4.35;;;;;;;;;;1033384;28;20025;-74
2023/12/29 02:04:17;;;;;;;6.45;2.28;;;;;;;;;;1033291;28;20394;-74
2023/12/29 02:04:48;;;;;;;3.92;2.33;;;;;;;;;;1033897;28;20030;-75
2023/12/29 02:05:20;;;;;;;1.52;1.33;;;;;;;;;;1033004;28;20033;-75
2023/12/29 02:05:52;;;;;;;3.28;2.88;;;;;;;;;;1033601;28;20030;-75
2023/12/29 02:06:23;;;;;;;3.10;2.15;;;;;;;;;;1031388;28;21102;-75
2023/12/29 02:06:54;;;;;;;3.05;2.08;;;;;;;;;;1031230;28;20483;-75
2023/12/29 02:07:25;;;;;;;2.85;2.33;;;;;;;;;;1033369;28;20022;-75
2023/12/29 02:07:55;;;;;;;4.47;1.90;;;;;;;;;;1037291;28;20021;-75
2023/12/29 02:08:26;;;;;;;9.88;3.15;;;;;;;;;;1037164;28;20108;-75
2023/12/29 02:08:56;;;;;;;13.43;3.40;;;;;;;;;;1028339;28;20407;-75
2023/12/29 02:09:27;;;;;;;5.35;4.82;;;;;;;;;;1029745;28;20033;-75
2023/12/29 02:09:59;;;;;;;5.55;4.13;;;;;;;;;;1028624;28;20181;-75
2023/12/29 02:10:30;;;;;;;5.47;4.53;;;;;;;;;;1029603;28;20038;-75
2023/12/29 02:11:00;;;;;;;6.68;1.80;;;;;;;;;;1036561;28;20524;-75
2023/12/29 02:11:31;;;;;;;4.15;2.97;;;;;;;;;;1037205;28;20076;-75
2023/12/29 02:12:02;;;;;;;36.00;5.65;;;;;;;;;;1037302;28;20022;-75
2023/12/29 02:12:34;;;;;;;5.90;4.82;;;;;;;;;;1033292;28;20030;-75
2023/12/29 02:13:05;;;;;;;34.38;9.10;;;;;;;;;;1033611;28;20426;-75
2023/12/29 02:13:36;;;;;;;0.75;0.75;;;;;;;;;;1033761;28;20036;-75
2023/12/29 02:14:06;;;;;;;13.25;4.85;;;;;;;;;;1033882;28;20132;-75
2023/12/29 02:14:37;;;;;;;4.18;3.85;;;;;;;;;;1032757;28;20117;-75
2023/12/29 02:15:08;;;;;;;13.30;6.30;;;;;;;;;;1032885;28;20018;-75
2023/12/29 02:15:38;;;;;;;4.72;3.40;;;;;;;;;;1031663;28;20470;-75
2023/12/29 02:16:49;;;;;;;7.85;3.80;;;;;;;;;;1027988;28;20027;-75
2023/12/29 02:17:22;;;;;;;7.30;2.95;;;;;;;;;;1018696;29;20118;-75
2023/12/29 02:17:59;;;;;;;2.92;2.72;;;;;;;;;;1019252;29;20030;-75
2023/12/29 02:18:30;;;;;;;10.40;2.33;;;;;;;;;;1018373;29;20020;-77
2023/12/29 02:19:07;;;;;;;22.30;3.25;;;;;;;;;;1013380;29;20033;-75
2023/12/29 02:19:39;;;;;;;24.05;3.40;;;;;;;;;;1011182;29;20039;-74
2023/12/29 02:20:11;;;;;;;5.40;3.92;;;;;;;;;;1009411;29;20033;-75
2023/12/29 02:20:42;;;;;;;1.77;1.67;;;;;;;;;;1010991;29;20458;-76
2023/12/29 02:21:13;;;;;;;1.73;1.63;;;;;;;;;;1009031;29;20071;-75
2023/12/29 02:21:43;;;;;;;2.67;2.08;;;;;;;;;;1015482;29;20175;-75
2023/12/29 02:22:14;;;;;;;5.13;4.65;;;;;;;;;;1010164;29;20039;-75
2023/12/29 02:22:44;;;;;;;9.02;4.50;;;;;;;;;;1011285;29;20034;-75
2023/12/29 02:23:15;;;;;;;1.85;1.75;;;;;;;;;;1020730;28;20532;-75
2023/12/29 02:23:45;;;;;;;7.90;4.97;;;;;;;;;;1025357;28;20452;-75
2023/12/29 02:24:16;;;;;;;3.42;2.35;;;;;;;;;;1025305;28;20617;-75
2023/12/29 02:24:47;;;;;;;1.75;1.17;;;;;;;;;;1029513;28;20022;-75
2023/12/29 02:25:17;;;;;;;2.63;1.70;;;;;;;;;;1032910;28;20026;-74
2023/12/29 02:25:48;;;;;;;17.08;3.40;;;;;;;;;;1036736;28;20068;-75
2023/12/29 02:26:20;;;;;;;1.98;1.83;;;;;;;;;;1033638;28;20517;-75
2023/12/29 02:26:54;;;;;;;2.92;1.95;;;;;;;;;;1033543;28;20037;-74
2023/12/29 02:27:25;;;;;;;9.07;5.47;;;;;;;;;;1033369;28;20085;-75
2023/12/29 02:28:18;;;;;;;3.92;1.95;;;;;;;;;;1034336;28;20076;-75
2023/12/29 02:28:53;;;;;;;3.05;2.75;;;;;;;;;;1026478;28;20068;-76
2023/12/29 02:29:24;;;;;;;9.85;4.47;;;;;;;;;;1035422;28;20025;-76
2023/12/29 02:30:03;;;;;;;3.35;1.50;;;;;;;;;;1035477;28;20022;-75
2023/12/29 02:30:38;;;;;;;3.83;2.42;;;;;;;;;;1031142;28;20089;-75
2023/12/29 02:31:14;;;;;;;3.60;1.73;;;;;;;;;;1031223;28;20101;-75
2023/12/29 02:31:48;;;;;;;3.95;3.60;;;;;;;;;;1032738;28;20068;-74
2023/12/29 02:32:19;;;;;;;11.77;5.45;;;;;;;;;;1030911;28;20041;-74
2023/12/29 02:32:50;;;;;;;6.78;2.22;;;;;;;;;;1031752;28;20109;-74
2023/12/29 02:33:22;;;;;;;4.18;3.78;;;;;;;;;;1032736;28;20027;-75
2023/12/29 02:33:52;;;;;;;7.18;5.85;;;;;;;;;;1031544;28;20077;-75
2023/12/29 02:34:23;;;;;;;2.20;2.05;;;;;;;;;;1033353;28;20175;-75
2023/12/29 02:34:54;;;;;;;18.70;2.88;;;;;;;;;;1033174;28;20029;-75
2023/12/29 02:35:26;;;;;;;15.57;5.35;;;;;;;;;;1033831;28;20032;-75
2023/12/29 02:35:59;;;;;;;12.25;5.43;;;;;;;;;;1032680;28;20022;-75
2023/12/29 02:36:30;;;;;;;3.85;1.85;;;;;;;;;;1032952;28;20026;-75
2023/12/29 02:37:01;;;;;;;2.35;2.15;;;;;;;;;;1032933;28;20021;-75
2023/12/29 02:37:31;;;;;;;4.88;4.50;;;;;;;;;;1031560;28;20023;-75
2023/12/29 02:38:02;;;;;;;19.33;3.63;;;;;;;;;;1032137;28;20034;-75
2023/12/29 02:38:33;;;;;;;4.05;2.67;;;;;;;;;;1032621;28;20595;-75
2023/12/29 02:39:04;;;;;;;5.65;4.75;;;;;;;;;;1032751;28;20533;-77
2023/12/29 02:39:34;;;;;;;4.88;2.33;;;;;;;;;;1033222;28;20025;-74
2023/12/29 02:40:05;;;;;;;5.47;3.45;;;;;;;;;;1033690;28;20026;-74
2023/12/29 02:40:36;;;;;;;16.17;4.13;;;;;;;;;;1032884;28;20041;-74
2023/12/29 02:41:06;;;;;;;1.77;1.67;;;;;;;;;;1033623;28;20056;-74
2023/12/29 02:41:40;;;;;;;3.80;3.17;;;;;;;;;;1032955;28;20029;-75
2023/12/29 02:42:10;;;;;;;4.38;2.78;;;;;;;;;;1031651;28;20434;-74
2023/12/29 02:42:44;;;;;;;4.03;3.50;;;;;;;;;;1033219;28;20026;-74
2023/12/29 02:43:15;;;;;;;1.90;1.80;;;;;;;;;;1033197;28;20038;-74
2023/12/29 02:43:45;;;;;;;13.13;2.65;;;;;;;;;;1033412;28;20390;-74
2023/12/29 02:44:15;;;;;;;8.68;3.80;;;;;;;;;;1030984;28;20450;-74
2023/12/29 02:44:46;;;;;;;3.20;3.00;;;;;;;;;;1030406;28;20513;-75
2023/12/29 02:45:17;;;;;;;3.55;2.97;;;;;;;;;;1032106;28;20034;-75
2023/12/29 02:45:47;;;;;;;4.50;3.00;;;;;;;;;;1031376;28;20062;-74
2023/12/29 02:46:17;;;;;;;12.13;5.78;;;;;;;;;;1031037;28;20041;-75
2023/12/29 02:46:48;;;;;;;19.15;7.07;;;;;;;;;;1030883;28;20064;-74
2023/12/29 02:47:19;;;;;;;5.90;5.30;;;;;;;;;;1030249;28;20030;-74
2023/12/29 02:47:49;;;;;;;6.55;3.65;;;;;;;;;;1031644;28;20096;-75
2023/12/29 02:48:20;;;;;;;8.38;3.20;;;;;;;;;;1030507;28;20412;-74
2023/12/29 02:48:51;;;;;;;5.80;4.10;;;;;;;;;;1031414;28;20391;-74
2023/12/29 02:49:22;;;;;;;10.70;4.70;;;;;;;;;;1030862;28;20030;-74
2023/12/29 02:49:54;;;;;;;6.40;5.18;;;;;;;;;;1026698;28;20030;-75
2023/12/29 02:50:25;;;;;;;11.43;5.07;;;;;;;;;;1028003;28;20101;-75
2023/12/29 02:50:55;;;;;;;11.52;7.05;;;;;;;;;;1029033;28;20502;-75
2023/12/29 02:51:27;;;;;;;20.00;4.28;;;;;;;;;;1025813;28;20162;-75
2023/12/29 02:51:57;;;;;;;15.73;6.57;;;;;;;;;;1025476;28;20134;-75
2023/12/29 02:52:28;;;;;;;10.80;4.50;;;;;;;;;;1025796;28;20027;-75
2023/12/29 02:52:58;;;;;;;20.08;4.00;;;;;;;;;;1028185;28;20030;-75
2023/12/29 02:53:29;;;;;;;8.88;4.43;;;;;;;;;;1031745;28;21099;-75
2023/12/29 02:53:59;;;;;;;5.93;2.92;;;;;;;;;;1032978;28;20033;-75
2023/12/29 02:54:30;;;;;;;3.53;3.17;;;;;;;;;;1030337;28;20041;-74
2023/12/29 02:55:01;;;;;;;2.83;2.58;;;;;;;;;;1034445;28;20030;-74
2023/12/29 02:55:31;;;;;;;7.25;5.07;;;;;;;;;;1035023;28;20942;-74
2023/12/29 02:56:02;;;;;;;6.35;4.25;;;;;;;;;;1034481;28;20025;-74
2023/12/29 02:56:34;;;;;;;8.95;3.38;;;;;;;;;;1032273;28;20041;-74
2023/12/29 02:57:04;;;;;;;10.13;6.35;;;;;;;;;;1032348;28;20053;-75
2023/12/29 02:57:35;;;;;;;8.80;4.75;;;;;;;;;;1029040;28;21276;-75
2023/12/29 02:58:05;;;;;;;4.97;3.13;;;;;;;;;;1027887;28;20027;-75
2023/12/29 02:58:36;;;;;;;12.98;4.65;;;;;;;;;;1026233;28;20097;-74
2023/12/29 02:59:06;;;;;;;3.25;2.95;;;;;;;;;;1027710;28;20058;-74
2023/12/29 02:59:37;;;;;;;5.50;4.30;;;;;;;;;;1026993;28;20033;-75
2023/12/29 03:00:10;;;;;;;14.98;4.72;;;;;;;;;;1031790;28;20032;-75
2023/12/29 03:00:43;;;;;;;21.70;4.93;;;;;;;;;;1027852;28;20208;-76
2023/12/29 03:01:14;;;;;;;3.95;2.70;;;;;;;;;;1033210;28;20022;-76
2023/12/29 03:01:48;;;;;;;4.45;3.88;;;;;;;;;;1032780;28;20033;-76
2023/12/29 03:02:19;;;;;;;22.42;5.53;;;;;;;;;;1026785;28;20508;-76
2023/12/29 03:02:49;;;;;;;8.88;5.38;;;;;;;;;;1027850;28;20038;-76
2023/12/29 03:03:20;;;;;;;12.85;6.07;;;;;;;;;;1030799;28;20033;-75
2023/12/29 03:03:50;;;;;;;8.15;7.30;;;;;;;;;;1030761;28;20784;-76
2023/12/29 03:04:21;;;;;;;4.65;4.25;;;;;;;;;;1032217;28;20194;-77
2023/12/29 03:04:51;;;;;;;13.70;5.35;;;;;;;;;;1029941;28;20196;-76
2023/12/29 03:05:22;;;;;;;8.20;5.18;;;;;;;;;;1028753;28;20038;-76
2023/12/29 03:05:53;;;;;;;38.17;9.50;;;;;;;;;;1029316;28;20030;-77
2023/12/29 03:06:24;;;;;;;6.32;5.80;;;;;;;;;;1031927;28;20121;-76